KORL/ORL METAR and TAF weather

Enter ICAO airport designator
Station Type Date Time Source
KORL METAR 2019/06/18 12:53 UTC NOAA

KORL 181253Z 20009KT 10SM FEW012 27/23 A3005 RMK AO2 SLP178 T02670233


Station Type Date Time Source
KORL Decoded METAR 2019/06/18 12:53 UTC NOAA

ORLANDO EXECUTIVE AIRPORT, FL, United States (KORL) 28-33N 081-20W 37M
Jun 18, 2019 - 08:53 AM EDT / 2019.06.18 1253 UTC
Wind: from the SSW (200 degrees) at 10 MPH (9 KT):0
Visibility: 10 mile(s):0
Sky conditions: mostly clear
Temperature: 80.1 F (26.7 C)
Dew Point: 73.9 F (23.3 C)
Relative Humidity: 81%
Pressure (altimeter): 30.05 in. Hg (1017 hPa)
ob: KORL 181253Z 20009KT 10SM FEW012 27/23 A3005 RMK AO2 SLP178 T02670233
cycle: 13

Station Type Date Time Source
KORL TAF UTC NOAA

Error!

Example: see airport list